sensor_id;sensor_type;location;lat;lon;timestamp;P1;durP1;ratioP1;P2;durP2;ratioP2
39324;SDS011;25037;49.488;9.900;2023-12-29T00:01:23;4.95;;;1.55;;
39324;SDS011;25037;49.488;9.900;2023-12-29T00:06:16;3.05;;;1.10;;
39324;SDS011;25037;49.488;9.900;2023-12-29T00:08:43;4.25;;;2.17;;
39324;SDS011;25037;49.488;9.900;2023-12-29T00:11:16;3.50;;;1.23;;
39324;SDS011;25037;49.488;9.900;2023-12-29T00:13:46;2.97;;;1.55;;
39324;SDS011;25037;49.488;9.900;2023-12-29T00:16:16;2.67;;;1.00;;
39324;SDS011;25037;49.488;9.900;2023-12-29T00:18:44;2.58;;;1.00;;
39324;SDS011;25037;49.488;9.900;2023-12-29T00:21:11;3.05;;;1.20;;
39324;SDS011;25037;49.488;9.900;2023-12-29T00:26:04;2.80;;;1.17;;
39324;SDS011;25037;49.488;9.900;2023-12-29T00:28:31;3.28;;;1.08;;
39324;SDS011;25037;49.488;9.900;2023-12-29T00:30:57;3.05;;;1.23;;
39324;SDS011;25037;49.488;9.900;2023-12-29T00:33:28;2.80;;;1.20;;
39324;SDS011;25037;49.488;9.900;2023-12-29T00:35:56;3.92;;;1.30;;
39324;SDS011;25037;49.488;9.900;2023-12-29T00:40:52;3.70;;;1.10;;
39324;SDS011;25037;49.488;9.900;2023-12-29T00:43:19;2.55;;;1.30;;
39324;SDS011;25037;49.488;9.900;2023-12-29T00:45:45;3.47;;;1.60;;
39324;SDS011;25037;49.488;9.900;2023-12-29T00:48:12;2.33;;;1.05;;
39324;SDS011;25037;49.488;9.900;2023-12-29T00:53:05;2.88;;;1.33;;
39324;SDS011;25037;49.488;9.900;2023-12-29T00:55:32;3.08;;;1.20;;
39324;SDS011;25037;49.488;9.900;2023-12-29T00:57:59;3.30;;;1.35;;
39324;SDS011;25037;49.488;9.900;2023-12-29T01:00:26;2.83;;;1.02;;
39324;SDS011;25037;49.488;9.900;2023-12-29T01:02:53;3.75;;;1.23;;
39324;SDS011;25037;49.488;9.900;2023-12-29T01:05:20;3.83;;;1.38;;
39324;SDS011;25037;49.488;9.900;2023-12-29T01:07:47;3.20;;;1.20;;
39324;SDS011;25037;49.488;9.900;2023-12-29T01:10:13;3.53;;;1.20;;
39324;SDS011;25037;49.488;9.900;2023-12-29T01:12:40;3.45;;;1.45;;
39324;SDS011;25037;49.488;9.900;2023-12-29T01:15:07;4.30;;;1.50;;
39324;SDS011;25037;49.488;9.900;2023-12-29T01:17:34;4.07;;;1.40;;
39324;SDS011;25037;49.488;9.900;2023-12-29T01:20:01;3.65;;;1.40;;
39324;SDS011;25037;49.488;9.900;2023-12-29T01:22:30;3.70;;;2.13;;
39324;SDS011;25037;49.488;9.900;2023-12-29T01:25:00;4.78;;;1.33;;
39324;SDS011;25037;49.488;9.900;2023-12-29T01:27:29;5.07;;;1.60;;
39324;SDS011;25037;49.488;9.900;2023-12-29T01:29:56;4.43;;;1.60;;
39324;SDS011;25037;49.488;9.900;2023-12-29T01:32:23;6.50;;;2.15;;
39324;SDS011;25037;49.488;9.900;2023-12-29T01:34:50;3.38;;;1.65;;
39324;SDS011;25037;49.488;9.900;2023-12-29T01:37:18;5.07;;;1.70;;
39324;SDS011;25037;49.488;9.900;2023-12-29T01:39:45;4.47;;;1.90;;
39324;SDS011;25037;49.488;9.900;2023-12-29T01:42:11;3.95;;;2.08;;
39324;SDS011;25037;49.488;9.900;2023-12-29T01:44:38;5.03;;;1.90;;
39324;SDS011;25037;49.488;9.900;2023-12-29T01:47:14;5.55;;;2.13;;
39324;SDS011;25037;49.488;9.900;2023-12-29T01:49:45;4.15;;;1.80;;
39324;SDS011;25037;49.488;9.900;2023-12-29T01:52:12;4.38;;;1.88;;
39324;SDS011;25037;49.488;9.900;2023-12-29T01:54:42;5.65;;;2.28;;
39324;SDS011;25037;49.488;9.900;2023-12-29T01:57:10;4.90;;;2.10;;
39324;SDS011;25037;49.488;9.900;2023-12-29T01:59:38;4.97;;;1.85;;
39324;SDS011;25037;49.488;9.900;2023-12-29T02:02:05;6.65;;;2.00;;
39324;SDS011;25037;49.488;9.900;2023-12-29T02:04:32;5.13;;;2.65;;
39324;SDS011;25037;49.488;9.900;2023-12-29T02:06:59;4.32;;;1.67;;
39324;SDS011;25037;49.488;9.900;2023-12-29T02:09:26;4.47;;;2.15;;
39324;SDS011;25037;49.488;9.900;2023-12-29T02:11:54;3.38;;;1.50;;
39324;SDS011;25037;49.488;9.900;2023-12-29T02:14:20;4.90;;;1.45;;
39324;SDS011;25037;49.488;9.900;2023-12-29T02:19:44;3.60;;;1.77;;
39324;SDS011;25037;49.488;9.900;2023-12-29T02:22:13;5.28;;;1.80;;
39324;SDS011;25037;49.488;9.900;2023-12-29T02:24:59;3.13;;;1.40;;
39324;SDS011;25037;49.488;9.900;2023-12-29T02:27:31;4.45;;;1.70;;
39324;SDS011;25037;49.488;9.900;2023-12-29T02:32:42;5.13;;;1.65;;
39324;SDS011;25037;49.488;9.900;2023-12-29T02:35:13;4.53;;;1.67;;
39324;SDS011;25037;49.488;9.900;2023-12-29T02:37:43;3.50;;;1.80;;
39324;SDS011;25037;49.488;9.900;2023-12-29T02:40:10;4.03;;;1.80;;
39324;SDS011;25037;49.488;9.900;2023-12-29T02:42:38;4.30;;;1.58;;
39324;SDS011;25037;49.488;9.900;2023-12-29T02:45:04;3.85;;;1.75;;
39324;SDS011;25037;49.488;9.900;2023-12-29T02:47:31;3.75;;;2.42;;
39324;SDS011;25037;49.488;9.900;2023-12-29T02:49:58;3.92;;;2.00;;
39324;SDS011;25037;49.488;9.900;2023-12-29T02:54:52;4.57;;;1.90;;
39324;SDS011;25037;49.488;9.900;2023-12-29T02:57:18;6.78;;;1.92;;
39324;SDS011;25037;49.488;9.900;2023-12-29T02:59:45;3.63;;;1.73;;
39324;SDS011;25037;49.488;9.900;2023-12-29T03:02:11;7.20;;;2.30;;
39324;SDS011;25037;49.488;9.900;2023-12-29T03:04:38;5.90;;;2.30;;
39324;SDS011;25037;49.488;9.900;2023-12-29T03:07:05;3.88;;;1.85;;
39324;SDS011;25037;49.488;9.900;2023-12-29T03:11:58;4.78;;;2.08;;
39324;SDS011;25037;49.488;9.900;2023-12-29T03:14:25;4.70;;;2.13;;
39324;SDS011;25037;49.488;9.900;2023-12-29T03:16:52;5.28;;;2.28;;
39324;SDS011;25037;49.488;9.900;2023-12-29T03:19:19;4.50;;;2.25;;
39324;SDS011;25037;49.488;9.900;2023-12-29T03:21:45;5.68;;;2.08;;
39324;SDS011;25037;49.488;9.900;2023-12-29T03:24:12;6.25;;;2.20;;
39324;SDS011;25037;49.488;9.900;2023-12-29T03:26:39;6.57;;;2.60;;
39324;SDS011;25037;49.488;9.900;2023-12-29T03:29:05;5.28;;;2.08;;
39324;SDS011;25037;49.488;9.900;2023-12-29T03:31:32;4.85;;;2.30;;
39324;SDS011;25037;49.488;9.900;2023-12-29T03:33:59;4.72;;;1.98;;
39324;SDS011;25037;49.488;9.900;2023-12-29T03:36:26;5.68;;;1.83;;
39324;SDS011;25037;49.488;9.900;2023-12-29T03:38:52;5.47;;;1.95;;
39324;SDS011;25037;49.488;9.900;2023-12-29T03:41:19;4.30;;;2.03;;
39324;SDS011;25037;49.488;9.900;2023-12-29T03:43:46;4.30;;;2.10;;
39324;SDS011;25037;49.488;9.900;2023-12-29T03:48:46;4.20;;;1.95;;
39324;SDS011;25037;49.488;9.900;2023-12-29T03:51:14;5.50;;;2.30;;
39324;SDS011;25037;49.488;9.900;2023-12-29T03:53:41;4.57;;;2.42;;
39324;SDS011;25037;49.488;9.900;2023-12-29T03:56:08;4.55;;;1.83;;
39324;SDS011;25037;49.488;9.900;2023-12-29T03:58:39;4.75;;;2.70;;
39324;SDS011;25037;49.488;9.900;2023-12-29T04:01:24;3.90;;;1.90;;
39324;SDS011;25037;49.488;9.900;2023-12-29T04:06:19;5.68;;;1.73;;
39324;SDS011;25037;49.488;9.900;2023-12-29T04:08:45;3.60;;;1.77;;
39324;SDS011;25037;49.488;9.900;2023-12-29T04:11:12;3.83;;;2.17;;
39324;SDS011;25037;49.488;9.900;2023-12-29T04:13:39;4.60;;;2.03;;
39324;SDS011;25037;49.488;9.900;2023-12-29T04:16:05;5.28;;;1.75;;
39324;SDS011;25037;49.488;9.900;2023-12-29T04:18:32;3.72;;;1.77;;
39324;SDS011;25037;49.488;9.900;2023-12-29T04:20:59;4.38;;;1.50;;
39324;SDS011;25037;49.488;9.900;2023-12-29T04:23:26;3.35;;;1.58;;
39324;SDS011;25037;49.488;9.900;2023-12-29T04:25:53;3.75;;;1.60;;
39324;SDS011;25037;49.488;9.900;2023-12-29T04:28:19;4.00;;;1.92;;
39324;SDS011;25037;49.488;9.900;2023-12-29T04:30:46;4.32;;;1.60;;
39324;SDS011;25037;49.488;9.900;2023-12-29T04:33:13;4.28;;;1.92;;
39324;SDS011;25037;49.488;9.900;2023-12-29T04:35:39;5.78;;;1.80;;
39324;SDS011;25037;49.488;9.900;2023-12-29T04:38:06;5.13;;;2.25;;
39324;SDS011;25037;49.488;9.900;2023-12-29T04:40:33;3.90;;;1.67;;
39324;SDS011;25037;49.488;9.900;2023-12-29T04:43:00;3.78;;;1.50;;
39324;SDS011;25037;49.488;9.900;2023-12-29T04:45:26;3.90;;;1.67;;
39324;SDS011;25037;49.488;9.900;2023-12-29T04:47:53;4.65;;;1.92;;
39324;SDS011;25037;49.488;9.900;2023-12-29T04:50:20;4.50;;;1.92;;
39324;SDS011;25037;49.488;9.900;2023-12-29T04:52:46;4.40;;;2.35;;
39324;SDS011;25037;49.488;9.900;2023-12-29T04:55:14;3.78;;;2.13;;
39324;SDS011;25037;49.488;9.900;2023-12-29T04:57:41;3.65;;;1.88;;
39324;SDS011;25037;49.488;9.900;2023-12-29T05:00:08;3.67;;;1.75;;
39324;SDS011;25037;49.488;9.900;2023-12-29T05:02:35;4.88;;;2.10;;
39324;SDS011;25037;49.488;9.900;2023-12-29T05:05:02;3.20;;;1.75;;
39324;SDS011;25037;49.488;9.900;2023-12-29T05:07:29;5.95;;;2.92;;
39324;SDS011;25037;49.488;9.900;2023-12-29T05:09:55;3.85;;;1.80;;
39324;SDS011;25037;49.488;9.900;2023-12-29T05:12:22;4.07;;;1.45;;
39324;SDS011;25037;49.488;9.900;2023-12-29T05:14:49;4.30;;;1.70;;
39324;SDS011;25037;49.488;9.900;2023-12-29T05:17:15;4.40;;;1.65;;
39324;SDS011;25037;49.488;9.900;2023-12-29T05:19:42;3.30;;;1.77;;
39324;SDS011;25037;49.488;9.900;2023-12-29T05:22:09;3.95;;;1.95;;
39324;SDS011;25037;49.488;9.900;2023-12-29T05:24:35;3.80;;;1.60;;
39324;SDS011;25037;49.488;9.900;2023-12-29T05:27:02;3.70;;;2.03;;
39324;SDS011;25037;49.488;9.900;2023-12-29T05:31:56;4.18;;;1.63;;
39324;SDS011;25037;49.488;9.900;2023-12-29T05:34:22;3.72;;;1.60;;
39324;SDS011;25037;49.488;9.900;2023-12-29T05:36:49;6.13;;;1.55;;
39324;SDS011;25037;49.488;9.900;2023-12-29T05:39:16;3.58;;;1.42;;
39324;SDS011;25037;49.488;9.900;2023-12-29T05:41:43;3.70;;;1.55;;
39324;SDS011;25037;49.488;9.900;2023-12-29T05:44:10;4.53;;;1.90;;
39324;SDS011;25037;49.488;9.900;2023-12-29T05:46:36;4.50;;;1.70;;
39324;SDS011;25037;49.488;9.900;2023-12-29T05:49:03;3.97;;;1.50;;
39324;SDS011;25037;49.488;9.900;2023-12-29T05:51:30;3.42;;;1.90;;
39324;SDS011;25037;49.488;9.900;2023-12-29T05:53:56;3.63;;;2.03;;
39324;SDS011;25037;49.488;9.900;2023-12-29T05:56:23;3.72;;;1.73;;
39324;SDS011;25037;49.488;9.900;2023-12-29T05:58:51;3.80;;;1.75;;
39324;SDS011;25037;49.488;9.900;2023-12-29T06:01:18;3.95;;;1.50;;
39324;SDS011;25037;49.488;9.900;2023-12-29T06:03:46;3.60;;;1.35;;
39324;SDS011;25037;49.488;9.900;2023-12-29T06:06:13;3.33;;;1.38;;
39324;SDS011;25037;49.488;9.900;2023-12-29T06:08:39;3.47;;;1.50;;
39324;SDS011;25037;49.488;9.900;2023-12-29T06:11:06;2.67;;;1.42;;
39324;SDS011;25037;49.488;9.900;2023-12-29T06:13:32;3.38;;;1.30;;
39324;SDS011;25037;49.488;9.900;2023-12-29T06:15:59;4.07;;;1.50;;
39324;SDS011;25037;49.488;9.900;2023-12-29T06:18:26;3.17;;;1.63;;
39324;SDS011;25037;49.488;9.900;2023-12-29T06:20:54;2.67;;;1.10;;
39324;SDS011;25037;49.488;9.900;2023-12-29T06:23:20;3.75;;;1.50;;
39324;SDS011;25037;49.488;9.900;2023-12-29T06:25:47;5.55;;;2.28;;
39324;SDS011;25037;49.488;9.900;2023-12-29T06:28:14;2.58;;;1.20;;
39324;SDS011;25037;49.488;9.900;2023-12-29T06:30:40;3.30;;;1.42;;
39324;SDS011;25037;49.488;9.900;2023-12-29T06:33:07;4.80;;;1.63;;
39324;SDS011;25037;49.488;9.900;2023-12-29T06:35:34;2.97;;;1.40;;
39324;SDS011;25037;49.488;9.900;2023-12-29T06:38:01;2.50;;;1.00;;
39324;SDS011;25037;49.488;9.900;2023-12-29T06:40:28;2.75;;;1.40;;
39324;SDS011;25037;49.488;9.900;2023-12-29T06:42:54;4.00;;;1.70;;
39324;SDS011;25037;49.488;9.900;2023-12-29T06:45:21;2.85;;;1.30;;
39324;SDS011;25037;49.488;9.900;2023-12-29T06:47:48;2.15;;;0.93;;
39324;SDS011;25037;49.488;9.900;2023-12-29T06:50:14;2.92;;;1.05;;
39324;SDS011;25037;49.488;9.900;2023-12-29T06:52:41;2.53;;;1.10;;
39324;SDS011;25037;49.488;9.900;2023-12-29T06:55:08;3.47;;;1.88;;
39324;SDS011;25037;49.488;9.900;2023-12-29T06:57:35;2.83;;;1.45;;
39324;SDS011;25037;49.488;9.900;2023-12-29T07:00:03;2.75;;;0.82;;
39324;SDS011;25037;49.488;9.900;2023-12-29T07:02:30;2.60;;;1.10;;
39324;SDS011;25037;49.488;9.900;2023-12-29T07:04:57;4.07;;;1.00;;
39324;SDS011;25037;49.488;9.900;2023-12-29T07:07:24;4.00;;;1.15;;
39324;SDS011;25037;49.488;9.900;2023-12-29T07:09:51;2.30;;;1.10;;
39324;SDS011;25037;49.488;9.900;2023-12-29T07:12:17;3.30;;;1.10;;
39324;SDS011;25037;49.488;9.900;2023-12-29T07:14:44;2.40;;;1.23;;
39324;SDS011;25037;49.488;9.900;2023-12-29T07:17:11;3.33;;;1.10;;
39324;SDS011;25037;49.488;9.900;2023-12-29T07:19:37;2.15;;;1.15;;
39324;SDS011;25037;49.488;9.900;2023-12-29T07:22:04;3.67;;;1.13;;
39324;SDS011;25037;49.488;9.900;2023-12-29T07:24:35;5.18;;;1.15;;
39324;SDS011;25037;49.488;9.900;2023-12-29T07:27:03;2.38;;;1.08;;
39324;SDS011;25037;49.488;9.900;2023-12-29T07:29:30;3.20;;;1.15;;
39324;SDS011;25037;49.488;9.900;2023-12-29T07:31:57;2.10;;;0.90;;
39324;SDS011;25037;49.488;9.900;2023-12-29T07:34:23;2.42;;;1.20;;
39324;SDS011;25037;49.488;9.900;2023-12-29T07:36:51;3.10;;;1.63;;
39324;SDS011;25037;49.488;9.900;2023-12-29T07:39:18;3.33;;;1.05;;
39324;SDS011;25037;49.488;9.900;2023-12-29T07:44:11;2.85;;;0.98;;
39324;SDS011;25037;49.488;9.900;2023-12-29T07:46:39;3.45;;;0.80;;
39324;SDS011;25037;49.488;9.900;2023-12-29T07:49:06;4.07;;;1.20;;
39324;SDS011;25037;49.488;9.900;2023-12-29T07:51:33;2.17;;;1.00;;
39324;SDS011;25037;49.488;9.900;2023-12-29T07:54:00;2.88;;;1.13;;
39324;SDS011;25037;49.488;9.900;2023-12-29T07:56:27;2.75;;;0.90;;
39324;SDS011;25037;49.488;9.900;2023-12-29T07:58:54;3.70;;;1.83;;
39324;SDS011;25037;49.488;9.900;2023-12-29T08:01:21;2.90;;;1.13;;
39324;SDS011;25037;49.488;9.900;2023-12-29T08:03:48;2.00;;;0.95;;
39324;SDS011;25037;49.488;9.900;2023-12-29T08:06:14;2.40;;;1.23;;
39324;SDS011;25037;49.488;9.900;2023-12-29T08:08:41;2.67;;;1.10;;
39324;SDS011;25037;49.488;9.900;2023-12-29T08:11:12;2.20;;;1.00;;
39324;SDS011;25037;49.488;9.900;2023-12-29T08:13:41;2.95;;;1.30;;
39324;SDS011;25037;49.488;9.900;2023-12-29T08:16:09;3.30;;;1.63;;
39324;SDS011;25037;49.488;9.900;2023-12-29T08:21:03;2.95;;;1.50;;
39324;SDS011;25037;49.488;9.900;2023-12-29T08:23:30;2.88;;;1.70;;
39324;SDS011;25037;49.488;9.900;2023-12-29T08:25:57;2.65;;;0.95;;
39324;SDS011;25037;49.488;9.900;2023-12-29T08:28:24;2.63;;;1.50;;
39324;SDS011;25037;49.488;9.900;2023-12-29T08:30:51;2.20;;;1.13;;
39324;SDS011;25037;49.488;9.900;2023-12-29T08:33:18;3.17;;;1.08;;
39324;SDS011;25037;49.488;9.900;2023-12-29T08:35:45;3.10;;;1.13;;
39324;SDS011;25037;49.488;9.900;2023-12-29T08:38:12;2.97;;;1.20;;
39324;SDS011;25037;49.488;9.900;2023-12-29T08:40:39;3.38;;;1.13;;
39324;SDS011;25037;49.488;9.900;2023-12-29T08:43:07;3.13;;;1.17;;
39324;SDS011;25037;49.488;9.900;2023-12-29T08:45:34;3.58;;;1.67;;
39324;SDS011;25037;49.488;9.900;2023-12-29T08:48:02;3.33;;;1.02;;
39324;SDS011;25037;49.488;9.900;2023-12-29T08:50:30;2.03;;;0.95;;
39324;SDS011;25037;49.488;9.900;2023-12-29T08:52:57;3.78;;;1.00;;
39324;SDS011;25037;49.488;9.900;2023-12-29T08:55:23;4.85;;;1.10;;
39324;SDS011;25037;49.488;9.900;2023-12-29T08:57:50;3.28;;;1.30;;
39324;SDS011;25037;49.488;9.900;2023-12-29T09:00:17;4.05;;;1.10;;
39324;SDS011;25037;49.488;9.900;2023-12-29T09:05:11;3.22;;;1.30;;
39324;SDS011;25037;49.488;9.900;2023-12-29T09:07:38;2.80;;;1.15;;
39324;SDS011;25037;49.488;9.900;2023-12-29T09:10:05;2.20;;;1.00;;
39324;SDS011;25037;49.488;9.900;2023-12-29T09:12:34;3.10;;;1.27;;
39324;SDS011;25037;49.488;9.900;2023-12-29T09:17:28;2.30;;;0.90;;
39324;SDS011;25037;49.488;9.900;2023-12-29T09:19:55;2.80;;;1.33;;
39324;SDS011;25037;49.488;9.900;2023-12-29T09:22:35;2.13;;;0.98;;
39324;SDS011;25037;49.488;9.900;2023-12-29T09:25:01;2.80;;;1.10;;
39324;SDS011;25037;49.488;9.900;2023-12-29T09:27:29;2.75;;;1.23;;
39324;SDS011;25037;49.488;9.900;2023-12-29T09:29:55;2.72;;;0.93;;
39324;SDS011;25037;49.488;9.900;2023-12-29T09:32:22;2.60;;;1.13;;
39324;SDS011;25037;49.488;9.900;2023-12-29T09:34:49;6.18;;;1.63;;
39324;SDS011;25037;49.488;9.900;2023-12-29T09:37:15;2.90;;;1.08;;
39324;SDS011;25037;49.488;9.900;2023-12-29T09:39:43;3.63;;;1.08;;
39324;SDS011;25037;49.488;9.900;2023-12-29T09:42:11;2.88;;;1.50;;
39324;SDS011;25037;49.488;9.900;2023-12-29T09:44:45;3.20;;;1.25;;
39324;SDS011;25037;49.488;9.900;2023-12-29T09:47:15;2.50;;;0.88;;
39324;SDS011;25037;49.488;9.900;2023-12-29T09:49:49;2.47;;;1.35;;
39324;SDS011;25037;49.488;9.900;2023-12-29T09:52:19;3.50;;;1.35;;
39324;SDS011;25037;49.488;9.900;2023-12-29T09:54:51;2.53;;;1.38;;
39324;SDS011;25037;49.488;9.900;2023-12-29T09:57:18;2.63;;;1.40;;
39324;SDS011;25037;49.488;9.900;2023-12-29T09:59:45;2.60;;;1.13;;
39324;SDS011;25037;49.488;9.900;2023-12-29T10:02:18;2.67;;;1.08;;
39324;SDS011;25037;49.488;9.900;2023-12-29T10:04:47;2.30;;;1.40;;
39324;SDS011;25037;49.488;9.900;2023-12-29T10:07:15;2.15;;;0.90;;
39324;SDS011;25037;49.488;9.900;2023-12-29T10:09:50;2.58;;;1.05;;
39324;SDS011;25037;49.488;9.900;2023-12-29T10:12:20;2.72;;;1.70;;
39324;SDS011;25037;49.488;9.900;2023-12-29T10:20:12;5.45;;;1.58;;
39324;SDS011;25037;49.488;9.900;2023-12-29T10:23:20;1.88;;;0.85;;
39324;SDS011;25037;49.488;9.900;2023-12-29T10:26:02;2.83;;;0.70;;
39324;SDS011;25037;49.488;9.900;2023-12-29T10:28:30;2.15;;;0.90;;
39324;SDS011;25037;49.488;9.900;2023-12-29T10:30:57;2.00;;;0.75;;
39324;SDS011;25037;49.488;9.900;2023-12-29T10:33:24;2.47;;;0.70;;
39324;SDS011;25037;49.488;9.900;2023-12-29T10:35:58;2.17;;;0.80;;
39324;SDS011;25037;49.488;9.900;2023-12-29T10:38:29;2.28;;;0.90;;
39324;SDS011;25037;49.488;9.900;2023-12-29T10:41:10;1.80;;;0.80;;
39324;SDS011;25037;49.488;9.900;2023-12-29T10:43:37;2.63;;;1.00;;
39324;SDS011;25037;49.488;9.900;2023-12-29T10:46:07;2.00;;;0.95;;
39324;SDS011;25037;49.488;9.900;2023-12-29T10:48:35;2.10;;;0.80;;
39324;SDS011;25037;49.488;9.900;2023-12-29T10:51:02;3.15;;;0.65;;
39324;SDS011;25037;49.488;9.900;2023-12-29T10:53:32;2.10;;;0.90;;
39324;SDS011;25037;49.488;9.900;2023-12-29T10:56:02;2.03;;;0.70;;
39324;SDS011;25037;49.488;9.900;2023-12-29T10:58:29;2.88;;;1.08;;
39324;SDS011;25037;49.488;9.900;2023-12-29T11:00:58;3.03;;;1.05;;
39324;SDS011;25037;49.488;9.900;2023-12-29T11:03:28;1.73;;;0.73;;
39324;SDS011;25037;49.488;9.900;2023-12-29T11:05:58;2.38;;;0.90;;
39324;SDS011;25037;49.488;9.900;2023-12-29T11:08:28;1.85;;;0.75;;
39324;SDS011;25037;49.488;9.900;2023-12-29T11:10:54;1.98;;;0.80;;
39324;SDS011;25037;49.488;9.900;2023-12-29T11:13:22;2.35;;;0.98;;
39324;SDS011;25037;49.488;9.900;2023-12-29T11:18:17;1.58;;;0.80;;
39324;SDS011;25037;49.488;9.900;2023-12-29T11:20:45;2.55;;;0.90;;
39324;SDS011;25037;49.488;9.900;2023-12-29T11:23:13;2.05;;;0.70;;
39324;SDS011;25037;49.488;9.900;2023-12-29T11:25:39;2.05;;;0.73;;
39324;SDS011;25037;49.488;9.900;2023-12-29T11:28:08;2.50;;;0.90;;
39324;SDS011;25037;49.488;9.900;2023-12-29T11:30:40;1.60;;;0.90;;
39324;SDS011;25037;49.488;9.900;2023-12-29T11:33:11;2.42;;;0.88;;
39324;SDS011;25037;49.488;9.900;2023-12-29T11:35:55;3.70;;;0.75;;
39324;SDS011;25037;49.488;9.900;2023-12-29T11:44:09;2.42;;;0.80;;
39324;SDS011;25037;49.488;9.900;2023-12-29T11:46:40;2.97;;;0.93;;
39324;SDS011;25037;49.488;9.900;2023-12-29T11:49:11;2.60;;;0.80;;
39324;SDS011;25037;49.488;9.900;2023-12-29T11:51:42;1.60;;;0.60;;
39324;SDS011;25037;49.488;9.900;2023-12-29T11:54:10;3.63;;;0.70;;
39324;SDS011;25037;49.488;9.900;2023-12-29T11:56:47;1.80;;;0.55;;
39324;SDS011;25037;49.488;9.900;2023-12-29T11:59:23;1.98;;;0.73;;
39324;SDS011;25037;49.488;9.900;2023-12-29T12:01:58;1.40;;;0.60;;
39324;SDS011;25037;49.488;9.900;2023-12-29T12:04:33;2.63;;;0.75;;
39324;SDS011;25037;49.488;9.900;2023-12-29T12:07:12;1.27;;;0.55;;
39324;SDS011;25037;49.488;9.900;2023-12-29T12:09:42;1.58;;;0.50;;
39324;SDS011;25037;49.488;9.900;2023-12-29T12:12:10;1.80;;;0.88;;
39324;SDS011;25037;49.488;9.900;2023-12-29T12:14:47;1.70;;;0.80;;
39324;SDS011;25037;49.488;9.900;2023-12-29T12:17:27;2.63;;;0.60;;
39324;SDS011;25037;49.488;9.900;2023-12-29T12:20:00;2.50;;;0.73;;
39324;SDS011;25037;49.488;9.900;2023-12-29T12:22:30;2.95;;;1.27;;
39324;SDS011;25037;49.488;9.900;2023-12-29T12:25:02;2.38;;;0.65;;
39324;SDS011;25037;49.488;9.900;2023-12-29T12:27:30;1.45;;;0.52;;
39324;SDS011;25037;49.488;9.900;2023-12-29T12:29:58;1.92;;;0.68;;
39324;SDS011;25037;49.488;9.900;2023-12-29T12:32:26;2.13;;;0.85;;
39324;SDS011;25037;49.488;9.900;2023-12-29T12:34:54;1.75;;;0.77;;
39324;SDS011;25037;49.488;9.900;2023-12-29T12:37:22;1.75;;;0.60;;
39324;SDS011;25037;49.488;9.900;2023-12-29T12:39:49;2.63;;;0.50;;
39324;SDS011;25037;49.488;9.900;2023-12-29T12:44:47;2.72;;;0.70;;
39324;SDS011;25037;49.488;9.900;2023-12-29T12:47:34;3.38;;;0.90;;
39324;SDS011;25037;49.488;9.900;2023-12-29T12:50:08;1.65;;;0.65;;
39324;SDS011;25037;49.488;9.900;2023-12-29T12:52:36;1.98;;;0.70;;
39324;SDS011;25037;49.488;9.900;2023-12-29T12:55:03;1.65;;;0.70;;
39324;SDS011;25037;49.488;9.900;2023-12-29T12:57:30;1.98;;;0.63;;
39324;SDS011;25037;49.488;9.900;2023-12-29T12:59:57;1.15;;;0.50;;
39324;SDS011;25037;49.488;9.900;2023-12-29T13:02:27;1.42;;;0.63;;
39324;SDS011;25037;49.488;9.900;2023-12-29T13:04:54;1.88;;;0.90;;
39324;SDS011;25037;49.488;9.900;2023-12-29T13:07:21;1.58;;;0.55;;
39324;SDS011;25037;49.488;9.900;2023-12-29T13:09:49;2.15;;;0.70;;
39324;SDS011;25037;49.488;9.900;2023-12-29T13:12:18;2.80;;;1.10;;
39324;SDS011;25037;49.488;9.900;2023-12-29T13:14:45;1.75;;;0.65;;
39324;SDS011;25037;49.488;9.900;2023-12-29T13:17:15;2.45;;;0.80;;
39324;SDS011;25037;49.488;9.900;2023-12-29T13:19:42;2.25;;;0.95;;
39324;SDS011;25037;49.488;9.900;2023-12-29T13:22:11;2.15;;;1.00;;
39324;SDS011;25037;49.488;9.900;2023-12-29T13:24:44;2.05;;;0.68;;
39324;SDS011;25037;49.488;9.900;2023-12-29T13:27:12;2.38;;;1.08;;
39324;SDS011;25037;49.488;9.900;2023-12-29T13:29:39;2.22;;;0.70;;
39324;SDS011;25037;49.488;9.900;2023-12-29T13:32:25;3.78;;;0.90;;
39324;SDS011;25037;49.488;9.900;2023-12-29T13:35:05;1.88;;;0.63;;
39324;SDS011;25037;49.488;9.900;2023-12-29T13:43:12;2.47;;;0.60;;
39324;SDS011;25037;49.488;9.900;2023-12-29T13:45:43;1.90;;;0.60;;
39324;SDS011;25037;49.488;9.900;2023-12-29T13:48:10;2.28;;;0.80;;
39324;SDS011;25037;49.488;9.900;2023-12-29T13:50:38;1.73;;;0.60;;
39324;SDS011;25037;49.488;9.900;2023-12-29T13:53:07;3.65;;;1.20;;
39324;SDS011;25037;49.488;9.900;2023-12-29T13:55:34;2.60;;;0.90;;
39324;SDS011;25037;49.488;9.900;2023-12-29T13:58:01;3.97;;;1.20;;
39324;SDS011;25037;49.488;9.900;2023-12-29T14:00:35;2.08;;;1.13;;
39324;SDS011;25037;49.488;9.900;2023-12-29T14:03:10;2.75;;;0.90;;
39324;SDS011;25037;49.488;9.900;2023-12-29T14:05:47;2.00;;;0.85;;
39324;SDS011;25037;49.488;9.900;2023-12-29T14:08:18;3.70;;;1.17;;
39324;SDS011;25037;49.488;9.900;2023-12-29T14:11:00;2.35;;;0.82;;
39324;SDS011;25037;49.488;9.900;2023-12-29T14:13:26;3.00;;;1.77;;
39324;SDS011;25037;49.488;9.900;2023-12-29T14:15:53;2.55;;;0.80;;
39324;SDS011;25037;49.488;9.900;2023-12-29T14:21:00;1.42;;;0.55;;
39324;SDS011;25037;49.488;9.900;2023-12-29T14:26:01;2.33;;;1.00;;
39324;SDS011;25037;49.488;9.900;2023-12-29T14:28:29;2.08;;;0.80;;
39324;SDS011;25037;49.488;9.900;2023-12-29T14:31:01;2.75;;;1.05;;
39324;SDS011;25037;49.488;9.900;2023-12-29T14:33:29;1.98;;;0.80;;
39324;SDS011;25037;49.488;9.900;2023-12-29T14:35:56;1.98;;;0.95;;
39324;SDS011;25037;49.488;9.900;2023-12-29T14:38:23;1.98;;;1.00;;
39324;SDS011;25037;49.488;9.900;2023-12-29T14:40:50;3.00;;;0.80;;
39324;SDS011;25037;49.488;9.900;2023-12-29T14:43:17;1.70;;;0.80;;
39324;SDS011;25037;49.488;9.900;2023-12-29T14:45:44;2.67;;;1.02;;
39324;SDS011;25037;49.488;9.900;2023-12-29T14:48:10;3.30;;;1.10;;
39324;SDS011;25037;49.488;9.900;2023-12-29T14:53:04;5.30;;;1.42;;
39324;SDS011;25037;49.488;9.900;2023-12-29T14:55:30;3.97;;;1.20;;
39324;SDS011;25037;49.488;9.900;2023-12-29T14:57:57;2.95;;;1.23;;
39324;SDS011;25037;49.488;9.900;2023-12-29T15:00:24;2.88;;;1.15;;
39324;SDS011;25037;49.488;9.900;2023-12-29T15:02:51;2.70;;;1.10;;
39324;SDS011;25037;49.488;9.900;2023-12-29T15:05:17;2.60;;;1.15;;
39324;SDS011;25037;49.488;9.900;2023-12-29T15:07:44;2.60;;;0.93;;
39324;SDS011;25037;49.488;9.900;2023-12-29T15:10:11;3.10;;;1.20;;
39324;SDS011;25037;49.488;9.900;2023-12-29T15:12:37;2.97;;;1.10;;
39324;SDS011;25037;49.488;9.900;2023-12-29T15:15:06;3.80;;;1.27;;
39324;SDS011;25037;49.488;9.900;2023-12-29T15:20:02;2.53;;;1.00;;
39324;SDS011;25037;49.488;9.900;2023-12-29T15:22:29;2.55;;;1.08;;
39324;SDS011;25037;49.488;9.900;2023-12-29T15:24:56;3.42;;;1.30;;
39324;SDS011;25037;49.488;9.900;2023-12-29T15:27:23;3.05;;;1.40;;
39324;SDS011;25037;49.488;9.900;2023-12-29T15:29:51;4.30;;;1.42;;
39324;SDS011;25037;49.488;9.900;2023-12-29T15:32:18;5.45;;;1.98;;
39324;SDS011;25037;49.488;9.900;2023-12-29T15:34:44;3.53;;;1.33;;
39324;SDS011;25037;49.488;9.900;2023-12-29T15:37:12;3.75;;;2.15;;
39324;SDS011;25037;49.488;9.900;2023-12-29T15:39:40;2.50;;;1.30;;
39324;SDS011;25037;49.488;9.900;2023-12-29T15:42:07;6.07;;;2.22;;
39324;SDS011;25037;49.488;9.900;2023-12-29T15:44:34;4.28;;;1.30;;
39324;SDS011;25037;49.488;9.900;2023-12-29T15:47:01;3.70;;;1.40;;
39324;SDS011;25037;49.488;9.900;2023-12-29T15:49:27;3.10;;;1.30;;
39324;SDS011;25037;49.488;9.900;2023-12-29T15:51:55;2.67;;;1.10;;
39324;SDS011;25037;49.488;9.900;2023-12-29T15:54:21;3.17;;;1.45;;
39324;SDS011;25037;49.488;9.900;2023-12-29T15:56:48;3.17;;;1.67;;
39324;SDS011;25037;49.488;9.900;2023-12-29T15:59:15;2.70;;;1.08;;
39324;SDS011;25037;49.488;9.900;2023-12-29T16:01:41;2.92;;;1.15;;
39324;SDS011;25037;49.488;9.900;2023-12-29T16:04:08;3.55;;;1.05;;